Time;durP1;ratioP1;P1;durP2;ratioP2;P2;SDS_P1;SDS_P2;PMS_P1;PMS_P2;Temp;Humidity;BMP_temperature;BMP_pressure;BME280_temperature;BME280_humidity;BME280_pressure;Samples;Min_cycle;Max_cycle;Signal;HPM_P1;HPM_P2
2022/10/07 00:00:57;;;;;;;28.60;27.10;;;;;;;10.21;100.00;102483.06;5072179;28;20457;-51
2022/10/07 00:03:27;;;;;;;29.93;28.00;;;;;;;10.18;100.00;102484.22;5071412;28;20462;-47
2022/10/07 00:06:05;;;;;;;29.23;27.23;;;;;;;10.17;100.00;102482.53;5072541;28;20475;-47
2022/10/07 00:08:34;;;;;;;28.70;26.80;;;;;;;10.15;100.00;102479.19;5072316;28;20430;-48
2022/10/07 00:11:07;;;;;;;29.57;27.70;;;;;;;10.13;100.00;102466.94;5070337;28;21025;-45
2022/10/07 00:13:37;;;;;;;29.40;27.23;;;;;;;10.10;100.00;102459.22;5071561;28;20507;-49
2022/10/07 00:16:09;;;;;;;28.73;27.13;;;;;;;10.07;100.00;102457.72;5072502;28;20426;-45
2022/10/07 00:18:37;;;;;;;27.97;26.40;;;;;;;10.06;100.00;102460.56;5072310;28;20502;-47
2022/10/07 00:21:06;;;;;;;29.50;28.00;;;;;;;10.03;100.00;102448.38;5072072;28;20434;-45
2022/10/07 00:23:34;;;;;;;29.00;27.10;;;;;;;10.01;100.00;102447.66;5071741;28;20466;-52
2022/10/07 00:26:03;;;;;;;29.50;27.80;;;;;;;10.00;100.00;102446.00;5071530;28;20430;-51
2022/10/07 00:28:31;;;;;;;29.20;27.40;;;;;;;9.99;100.00;102444.31;5071793;28;20492;-50
2022/10/07 00:30:59;;;;;;;29.00;27.00;;;;;;;9.96;100.00;102441.97;5071835;28;20476;-50
2022/10/07 00:33:31;;;;;;;33.63;31.73;;;;;;;9.95;100.00;102446.44;5071037;28;20557;-48
2022/10/07 00:35:59;;;;;;;28.63;27.47;;;;;;;9.94;100.00;102444.78;5068909;28;20430;-48
2022/10/07 00:38:27;;;;;;;25.60;24.60;;;;;;;9.91;100.00;102429.09;5071640;28;20435;-51
2022/10/07 00:40:54;;;;;;;25.30;24.50;;;;;;;9.90;100.00;102426.56;5071257;28;20531;-50
2022/10/07 00:43:25;;;;;;;24.70;24.00;;;;;;;9.88;100.00;102431.22;5070838;28;21012;-51
2022/10/07 00:45:54;;;;;;;25.90;24.80;;;;;;;9.85;100.00;102429.69;5071694;28;20842;-51
2022/10/07 00:48:26;;;;;;;25.10;23.90;;;;;;;9.84;100.00;102421.84;5071747;28;20831;-50
2022/10/07 00:50:57;;;;;;;25.67;24.37;;;;;;;9.81;100.00;102419.47;5072515;28;20468;-53
2022/10/07 00:53:27;;;;;;;25.10;24.30;;;;;;;9.78;100.00;102406.47;5071985;28;20478;-52
2022/10/07 00:56:00;;;;;;;26.00;25.00;;;;;;;9.76;100.00;102409.28;5072921;28;20492;-50
2022/10/07 00:58:30;;;;;;;25.90;24.90;;;;;;;9.75;100.00;102410.28;5072866;28;20479;-52
2022/10/07 01:00:58;;;;;;;26.30;25.10;;;;;;;9.74;100.00;102405.06;5072127;28;20426;-51
2022/10/07 01:03:25;;;;;;;26.30;25.10;;;;;;;9.73;100.00;102398.09;5068240;28;20458;-52
2022/10/07 01:05:54;;;;;;;25.73;24.90;;;;;;;9.74;100.00;102394.41;5071554;28;20427;-44
2022/10/07 01:08:23;;;;;;;25.60;24.80;;;;;;;9.74;100.00;102394.41;5072371;28;20580;-46
2022/10/07 01:10:59;;;;;;;26.20;25.20;;;;;;;9.73;100.00;102398.09;5072202;28;20476;-46
2022/10/07 01:13:33;;;;;;;26.37;25.47;;;;;;;9.72;100.00;102393.75;5071681;28;20474;-48
2022/10/07 01:16:12;;;;;;;26.30;25.30;;;;;;;9.69;100.00;102397.56;5072336;28;20419;-50
2022/10/07 01:18:46;;;;;;;26.90;25.90;;;;;;;9.67;100.00;102396.03;5072583;28;20996;-44
2022/10/07 01:21:27;;;;;;;25.87;25.07;;;;;;;9.67;100.00;102388.03;5068236;28;20423;-45
2022/10/07 01:24:08;;;;;;;26.10;25.30;;;;;;;9.65;100.00;102380.19;5051855;28;20482;-52
2022/10/07 01:26:56;;;;;;;26.40;25.50;;;;;;;9.63;100.00;102382.16;5052182;28;20462;-46
2022/10/07 01:29:29;;;;;;;26.60;25.70;;;;;;;9.59;100.00;102382.63;5052348;28;20847;-50
2022/10/07 01:32:05;;;;;;;26.60;25.60;;;;;;;9.56;100.00;102388.25;5084787;22;20543;-44
2022/10/07 01:34:34;;;;;;;26.20;25.10;;;;;;;9.54;100.00;102376.91;5063274;28;20477;-45
2022/10/07 01:37:05;;;;;;;26.10;25.10;;;;;;;9.50;100.00;102372.88;5070428;28;20492;-44
2022/10/07 01:39:40;;;;;;;27.13;26.03;;;;;;;9.44;100.00;102369.81;5070091;28;20861;-46
2022/10/07 01:42:10;;;;;;;26.40;25.40;;;;;;;9.44;100.00;102366.31;5070402;28;20454;-42
2022/10/07 01:44:39;;;;;;;31.03;29.20;;;;;;;9.40;100.00;102363.13;5069860;28;20528;-44
2022/10/07 01:47:07;;;;;;;28.80;27.40;;;;;;;9.38;100.00;102358.91;5070343;28;20488;-44
2022/10/07 01:49:35;;;;;;;28.50;27.13;;;;;;;9.35;100.00;102362.72;5070118;28;21226;-43
2022/10/07 01:52:25;;;;;;;27.97;26.90;;;;;;;9.35;100.00;102365.38;5070168;28;20504;-44
2022/10/07 01:55:10;;;;;;;28.53;27.40;;;;;;;9.33;100.00;102354.03;5068530;28;20835;-43
2022/10/07 01:57:49;;;;;;;30.17;28.57;;;;;;;9.34;100.00;102354.88;5070378;28;20430;-44
2022/10/07 02:00:17;;;;;;;30.90;28.70;;;;;;;9.33;100.00;102350.53;5070313;28;20434;-46
2022/10/07 02:02:59;;;;;;;29.07;27.97;;;;;;;9.30;100.00;102343.69;5069442;28;20516;-45
2022/10/07 02:05:39;;;;;;;33.17;31.37;;;;;;;9.30;100.00;102350.84;5070309;28;20487;-45
2022/10/07 02:08:22;;;;;;;32.40;30.27;;;;;;;9.29;100.00;102342.00;5069969;28;20434;-44
2022/10/07 02:11:05;;;;;;;32.13;30.17;;;;;;;9.29;100.00;102333.19;5069579;28;20426;-44
2022/10/07 02:13:38;;;;;;;31.93;29.97;;;;;;;9.28;100.00;102328.88;5069545;28;20458;-43
2022/10/07 02:16:15;;;;;;;31.73;29.93;;;;;;;9.27;100.00;102324.53;5070003;28;20422;-45
2022/10/07 02:18:47;;;;;;;31.63;29.70;;;;;;;9.26;100.00;102321.00;5070052;28;20974;-43
2022/10/07 02:21:18;;;;;;;31.03;29.57;;;;;;;9.25;100.00;102315.84;5069825;28;20851;-44
2022/10/07 02:23:49;;;;;;;33.17;31.20;;;;;;;9.22;100.00;102311.66;5069533;28;20466;-43
2022/10/07 02:26:20;;;;;;;31.97;30.37;;;;;;;9.20;100.00;102318.13;5069883;28;20483;-43
2022/10/07 02:28:52;;;;;;;32.00;30.10;;;;;;;9.18;100.00;102309.44;5069081;28;20745;-44
2022/10/07 02:31:23;;;;;;;31.87;30.10;;;;;;;9.17;100.00;102311.25;5070124;28;20524;-45
2022/10/07 02:33:55;;;;;;;30.77;29.17;;;;;;;9.18;100.00;102302.28;5063239;28;20450;-43
2022/10/07 02:36:27;;;;;;;30.60;29.00;;;;;;;9.16;100.00;102300.78;5071247;28;20472;-43
2022/10/07 02:38:59;;;;;;;29.83;28.43;;;;;;;9.14;100.00;102295.59;5071157;28;20442;-44
2022/10/07 02:41:36;;;;;;;30.97;29.57;;;;;;;9.13;100.00;102293.94;5070956;28;20496;-44
2022/10/07 02:44:15;;;;;;;31.50;29.60;;;;;;;9.12;100.00;102292.25;5070644;28;20981;-43
2022/10/07 02:46:50;;;;;;;31.80;29.80;;;;;;;9.10;100.00;102282.75;5071318;28;20430;-43
2022/10/07 02:49:22;;;;;;;31.60;29.90;;;;;;;9.09;100.00;102283.72;5071128;28;21189;-44
2022/10/07 02:51:56;;;;;;;29.77;28.33;;;;;;;9.08;100.00;102276.75;5070738;28;20499;-43
2022/10/07 02:54:28;;;;;;;29.80;28.43;;;;;;;9.07;100.00;102283.88;5070540;28;20470;-43
2022/10/07 02:56:58;;;;;;;30.73;29.00;;;;;;;9.06;100.00;102268.06;5071190;28;20430;-43
2022/10/07 02:59:28;;;;;;;30.10;28.50;;;;;;;9.05;100.00;102269.06;5073308;28;21007;-43
2022/10/07 03:02:01;;;;;;;30.00;28.60;;;;;;;9.04;100.00;102264.72;5074554;28;20458;-44
2022/10/07 03:04:29;;;;;;;33.17;30.40;;;;;;;9.03;100.00;102266.53;5074111;28;20476;-43
2022/10/07 03:06:57;;;;;;;30.27;28.60;;;;;;;9.02;100.00;102264.84;5074588;28;20426;-44
2022/10/07 03:09:26;;;;;;;31.37;29.30;;;;;;;9.01;100.00;102255.22;5074599;28;20942;-46
2022/10/07 03:11:53;;;;;;;31.20;29.20;;;;;;;9.02;100.00;102256.88;5074426;28;20457;-44
2022/10/07 03:14:23;;;;;;;32.40;30.10;;;;;;;9.01;100.00;102257.88;5074184;28;21036;-43
2022/10/07 03:16:52;;;;;;;40.77;36.50;;;;;;;9.01;100.00;102252.56;5074909;28;21158;-44
2022/10/07 03:19:20;;;;;;;33.67;30.80;;;;;;;9.02;100.00;102256.88;5071061;28;20494;-44
2022/10/07 03:21:48;;;;;;;32.13;30.40;;;;;;;9.03;100.00;102252.38;5066302;28;20445;-45
2022/10/07 03:24:17;;;;;;;32.53;30.50;;;;;;;9.03;100.00;102250.56;5073955;28;20469;-43
2022/10/07 03:26:44;;;;;;;34.27;31.70;;;;;;;9.03;100.00;102250.56;5074520;28;20491;-43
2022/10/07 03:29:12;;;;;;;31.33;29.60;;;;;;;9.05;100.00;102247.78;5074455;28;20491;-45
2022/10/07 03:31:41;;;;;;;33.03;30.77;;;;;;;9.04;100.00;102244.28;5073931;28;20496;-44
2022/10/07 03:34:11;;;;;;;32.13;30.10;;;;;;;9.06;100.00;102241.44;5073795;28;20453;-43
2022/10/07 03:36:39;;;;;;;34.27;31.33;;;;;;;9.07;100.00;102246.63;5074465;28;20484;-43
2022/10/07 03:39:06;;;;;;;33.37;30.87;;;;;;;9.08;100.00;102232.31;5073685;28;20947;-44
2022/10/07 03:41:34;;;;;;;33.40;31.20;;;;;;;9.08;100.00;102232.31;5073360;28;20866;-44
2022/10/07 03:44:01;;;;;;;32.37;30.03;;;;;;;9.09;100.00;102227.84;5072064;28;20493;-44
2022/10/07 03:46:29;;;;;;;32.70;30.80;;;;;;;9.09;100.00;102228.69;5072225;28;20430;-43
2022/10/07 03:48:57;;;;;;;33.10;31.17;;;;;;;9.12;100.00;102225.72;5072696;28;20446;-45
2022/10/07 03:51:26;;;;;;;33.03;30.67;;;;;;;9.11;100.00;102224.03;5073829;28;20462;-44
2022/10/07 03:53:56;;;;;;;31.63;29.53;;;;;;;9.09;100.00;102219.84;5073482;28;20523;-44
2022/10/07 03:56:24;;;;;;;33.07;30.70;;;;;;;9.07;100.00;102220.03;5073929;28;20835;-42
2022/10/07 03:58:51;;;;;;;32.53;30.23;;;;;;;9.07;100.00;102225.34;5073807;28;20441;-43
2022/10/07 04:01:19;;;;;;;33.60;31.20;;;;;;;9.06;100.00;102214.84;5073800;28;20500;-43
2022/10/07 04:03:47;;;;;;;32.97;30.63;;;;;;;9.06;100.00;102204.19;5073309;28;20490;-44
2022/10/07 04:06:14;;;;;;;32.60;30.53;;;;;;;9.06;100.00;102212.16;5073657;28;20931;-44
2022/10/07 04:08:43;;;;;;;33.27;31.17;;;;;;;9.04;100.00;102211.50;5073721;28;20846;-44
2022/10/07 04:11:11;;;;;;;33.17;30.77;;;;;;;9.02;100.00;102198.31;5073209;28;20460;-44
2022/10/07 04:13:39;;;;;;;33.13;30.80;;;;;;;9.03;100.00;102202.66;5073132;28;20466;-43
2022/10/07 04:16:08;;;;;;;33.37;31.27;;;;;;;9.02;100.00;102203.66;5073566;28;20466;-43
2022/10/07 04:18:36;;;;;;;35.67;33.20;;;;;;;9.03;100.00;102197.34;5073442;28;20488;-44
2022/10/07 04:21:04;;;;;;;33.00;31.10;;;;;;;9.02;100.00;102198.31;5069489;28;20928;-44
2022/10/07 04:23:32;;;;;;;33.67;31.60;;;;;;;9.02;100.00;102194.84;5073024;28;20458;-44
2022/10/07 04:26:01;;;;;;;34.57;32.57;;;;;;;9.01;100.00;102188.69;5073709;28;20980;-43
2022/10/07 04:28:28;;;;;;;33.10;31.20;;;;;;;9.00;100.00;102192.31;5074097;28;20834;-45
2022/10/07 04:30:56;;;;;;;33.70;31.67;;;;;;;8.99;100.00;102190.66;5072931;28;20813;-43
2022/10/07 04:33:24;;;;;;;36.23;33.43;;;;;;;8.98;100.00;102188.16;5072813;28;20465;-44
2022/10/07 04:35:52;;;;;;;34.03;31.27;;;;;;;8.97;100.00;102189.97;5073042;28;20547;-43
2022/10/07 04:38:19;;;;;;;35.80;32.90;;;;;;;8.98;100.00;102190.81;5072982;28;20487;-43
2022/10/07 04:40:52;;;;;;;35.63;32.73;;;;;;;8.95;100.00;102183.97;5072982;28;20426;-43
2022/10/07 04:43:23;;;;;;;34.50;32.00;;;;;;;8.93;100.00;102179.78;5072680;28;20470;-45
2022/10/07 04:45:53;;;;;;;33.57;31.63;;;;;;;8.90;100.00;102178.25;5073129;28;20902;-43
2022/10/07 04:48:22;;;;;;;36.33;33.13;;;;;;;8.88;100.00;102183.72;5072971;28;20434;-43
2022/10/07 04:50:51;;;;;;;35.17;32.57;;;;;;;8.87;100.00;102175.88;5072457;28;20488;-43
2022/10/07 04:53:20;;;;;;;34.70;32.10;;;;;;;8.84;100.00;102178.88;5072492;28;20528;-43
2022/10/07 04:55:50;;;;;;;34.77;32.67;;;;;;;8.85;100.00;102177.88;5072833;28;20873;-44
2022/10/07 04:58:19;;;;;;;33.73;31.20;;;;;;;8.84;100.00;102173.56;5072743;28;20434;-43
2022/10/07 05:00:49;;;;;;;34.13;31.97;;;;;;;8.83;100.00;102169.22;5072320;28;20438;-44
2022/10/07 05:03:19;;;;;;;35.73;33.43;;;;;;;8.82;100.00;102162.22;5071977;28;20558;-44
2022/10/07 05:05:48;;;;;;;34.00;32.10;;;;;;;8.83;100.00;102166.56;5072641;28;20426;-43
2022/10/07 05:08:17;;;;;;;35.43;33.13;;;;;;;8.80;100.00;102166.84;5072394;28;20434;-44
2022/10/07 05:10:45;;;;;;;33.50;31.40;;;;;;;8.77;100.00;102162.69;5072374;28;20434;-44
2022/10/07 05:13:16;;;;;;;34.80;32.70;;;;;;;8.76;100.00;102160.16;5071888;28;20878;-44
2022/10/07 05:15:53;;;;;;;33.80;32.00;;;;;;;8.75;100.00;102161.16;5072216;28;20462;-45
2022/10/07 05:18:22;;;;;;;35.00;32.60;;;;;;;8.74;100.00;102157.66;5072357;28;20430;-44
2022/10/07 05:20:51;;;;;;;34.27;31.70;;;;;;;8.75;100.00;102161.16;5063360;28;20484;-43
2022/10/07 05:23:21;;;;;;;35.93;32.70;;;;;;;8.74;100.00;102162.97;5071653;28;20488;-44
2022/10/07 05:25:59;;;;;;;35.33;32.93;;;;;;;8.73;100.00;102155.13;5072160;28;20949;-44
2022/10/07 05:28:26;;;;;;;34.67;32.33;;;;;;;8.73;100.00;102163.09;5071993;28;20438;-43
2022/10/07 05:31:04;;;;;;;34.27;31.73;;;;;;;8.72;100.00;102156.13;5071916;28;20469;-43
2022/10/07 05:33:32;;;;;;;34.90;32.33;;;;;;;8.70;100.00;102156.28;5071712;28;20466;-44
2022/10/07 05:36:00;;;;;;;36.10;33.27;;;;;;;8.71;100.00;102159.78;5071909;28;20474;-43
2022/10/07 05:38:28;;;;;;;34.87;32.53;;;;;;;8.70;100.00;102147.44;5071961;28;20434;-45
2022/10/07 05:40:58;;;;;;;34.63;32.30;;;;;;;8.72;100.00;102156.13;5071520;28;20441;-42
2022/10/07 05:43:26;;;;;;;34.80;32.50;;;;;;;8.74;100.00;102155.00;5071665;28;20458;-44
2022/10/07 05:45:59;;;;;;;33.90;31.87;;;;;;;8.76;100.00;102146.84;5072015;28;20476;-44
2022/10/07 05:48:29;;;;;;;34.37;32.13;;;;;;;8.78;100.00;102139.56;5071864;28;20799;-45
2022/10/07 05:51:04;;;;;;;34.33;32.03;;;;;;;8.80;100.00;102140.25;5071455;28;20472;-44
2022/10/07 05:53:32;;;;;;;35.47;33.13;;;;;;;8.82;100.00;102140.94;5071137;28;20540;-44
2022/10/07 05:55:59;;;;;;;34.33;32.37;;;;;;;8.87;100.00;102136.81;5071827;28;20843;-43
2022/10/07 05:58:27;;;;;;;35.47;33.00;;;;;;;8.92;100.00;102136.38;5071651;28;20438;-44
2022/10/07 06:00:56;;;;;;;35.57;33.20;;;;;;;8.98;100.00;102138.44;5071280;28;20434;-44
2022/10/07 06:03:31;;;;;;;35.97;33.87;;;;;;;9.02;100.00;102138.97;5071077;28;20461;-44
2022/10/07 06:06:01;;;;;;;34.63;32.13;;;;;;;9.06;100.00;102135.84;5071565;28;21105;-44
2022/10/07 06:08:28;;;;;;;37.03;33.83;;;;;;;9.11;100.00;102136.22;5071796;28;20511;-43
2022/10/07 06:13:48;;;;;;;38.53;34.90;;;;;;;9.21;100.00;102133.47;5071307;28;20488;-43
2022/10/07 06:16:15;;;;;;;35.07;33.00;;;;;;;9.25;100.00;102129.53;5071338;28;20540;-44
2022/10/07 06:18:45;;;;;;;35.40;33.30;;;;;;;9.33;100.00;102129.56;5071724;28;20555;-43
2022/10/07 06:21:13;;;;;;;34.87;32.50;;;;;;;9.37;100.00;102131.78;5062699;28;20454;-43
2022/10/07 06:23:41;;;;;;;35.63;33.27;;;;;;;9.47;100.00;102126.34;5070954;28;20527;-43
2022/10/07 06:26:10;;;;;;;36.33;33.47;;;;;;;9.53;100.00;102119.59;5071303;28;20471;-43
2022/10/07 06:28:40;;;;;;;36.13;33.80;;;;;;;9.62;100.00;102126.59;5071250;28;20495;-43
2022/10/07 06:31:09;;;;;;;34.97;33.17;;;;;;;9.67;100.00;102124.34;5071016;28;20430;-45
2022/10/07 06:33:38;;;;;;;35.00;32.80;;;;;;;9.77;100.00;102128.53;5071918;28;20466;-43
2022/10/07 06:36:10;;;;;;;37.83;35.03;;;;;;;9.85;100.00;102130.44;5075353;28;20466;-44
2022/10/07 06:38:38;;;;;;;37.63;34.90;;;;;;;9.91;100.00;102121.81;5075428;28;20838;-44
2022/10/07 06:41:06;;;;;;;37.70;34.67;;;;;;;10.00;100.00;102126.19;5074835;28;20438;-43
2022/10/07 06:43:34;;;;;;;37.10;34.77;;;;;;;10.08;100.00;102114.72;5074794;28;20823;-43
2022/10/07 06:46:05;;;;;;;36.07;33.50;;;;;;;10.17;100.00;102109.28;5075193;28;20430;-43
2022/10/07 06:48:34;;;;;;;36.93;34.20;;;;;;;10.32;100.00;102105.03;5075150;28;20538;-43
2022/10/07 06:51:02;;;;;;;36.00;33.50;;;;;;;10.44;100.00;102102.88;5074672;28;20439;-43
2022/10/07 06:53:32;;;;;;;37.70;34.30;;;;;;;10.51;100.00;102123.41;5074321;28;20466;-43
2022/10/07 06:56:01;;;;;;;34.53;32.40;;;;;;;10.58;100.00;102123.59;5074610;28;20468;-43
2022/10/07 06:58:29;;;;;;;37.57;34.23;;;;;;;10.68;100.00;102126.13;5074979;28;20434;-43
2022/10/07 07:00:58;;;;;;;37.43;34.93;;;;;;;10.74;100.00;102117.47;5074539;28;20430;-43
2022/10/07 07:03:26;;;;;;;37.23;34.67;;;;;;;10.86;100.00;102108.97;5074241;28;20553;-43
2022/10/07 07:05:54;;;;;;;36.73;34.30;;;;;;;11.06;100.00;102110.31;5074610;28;20426;-43
2022/10/07 07:08:26;;;;;;;35.40;33.00;;;;;;;11.22;100.00;102108.66;5074382;28;20480;-43
2022/10/07 07:10:55;;;;;;;34.73;32.43;;;;;;;11.48;100.00;102118.16;5074441;28;20472;-44
2022/10/07 07:13:23;;;;;;;33.93;31.80;;;;;;;11.71;100.00;102106.78;5073972;28;20476;-45
2022/10/07 07:15:55;;;;;;;36.53;33.87;;;;;;;11.89;100.00;102104.72;5074326;28;20997;-43
2022/10/07 07:18:23;;;;;;;34.53;32.23;;;;;;;12.25;100.00;102110.41;5074293;28;20478;-43
2022/10/07 07:20:51;;;;;;;33.87;31.83;;;;;;;12.53;100.00;102103.59;5065516;28;20488;-43
2022/10/07 07:23:19;;;;;;;33.87;31.50;;;;;;;12.62;97.94;102103.38;5073900;28;20519;-43
2022/10/07 07:25:46;;;;;;;35.83;33.27;;;;;;;12.72;96.82;102098.59;5074507;28;20487;-43
2022/10/07 07:28:16;;;;;;;34.77;32.53;;;;;;;12.89;96.32;102094.00;5074240;28;20791;-43
2022/10/07 07:30:43;;;;;;;34.03;31.93;;;;;;;12.93;94.30;102097.16;5074126;28;20438;-43
2022/10/07 07:33:11;;;;;;;33.07;30.97;;;;;;;13.00;94.35;102096.22;5073343;28;21030;-43
2022/10/07 07:35:42;;;;;;;33.70;31.90;;;;;;;12.93;93.96;102086.44;5074231;28;20430;-45
2022/10/07 07:38:10;;;;;;;33.00;31.10;;;;;;;12.91;94.30;102072.38;5074103;28;20470;-43
2022/10/07 07:40:38;;;;;;;33.80;31.53;;;;;;;12.91;94.79;102091.94;5074112;28;20426;-43
2022/10/07 07:43:06;;;;;;;32.90;30.80;;;;;;;12.90;94.28;102090.31;5073234;28;20531;-43
2022/10/07 07:45:36;;;;;;;32.53;30.20;;;;;;;13.01;95.78;102086.34;5073497;28;20935;-44
2022/10/07 07:48:04;;;;;;;30.33;28.53;;;;;;;12.96;95.37;102083.41;5074956;22;20545;-45
2022/10/07 07:50:32;;;;;;;31.83;29.60;;;;;;;13.03;96.51;102087.84;5052326;28;20513;-43
2022/10/07 07:53:03;;;;;;;32.63;30.23;;;;;;;13.06;95.87;102074.09;5053337;28;20455;-45
2022/10/07 07:55:30;;;;;;;30.53;28.43;;;;;;;12.99;95.41;102070.47;5053997;28;20435;-51
2022/10/07 07:57:58;;;;;;;30.80;28.83;;;;;;;12.99;96.20;102066.97;5053715;28;20968;-48
2022/10/07 08:00:26;;;;;;;29.93;28.10;;;;;;;13.03;96.39;102068.25;5053558;28;21098;-48
2022/10/07 08:02:54;;;;;;;31.50;29.30;;;;;;;13.13;95.99;102059.00;5053390;28;20509;-43
2022/10/07 08:05:22;;;;;;;31.23;28.97;;;;;;;13.28;96.20;102056.34;5054021;28;20431;-43
2022/10/07 08:07:51;;;;;;;31.63;29.50;;;;;;;13.27;95.64;102052.84;5053762;28;20487;-47
2022/10/07 08:10:18;;;;;;;32.20;30.00;;;;;;;13.35;96.95;102054.59;5053578;28;20959;-47
2022/10/07 08:12:46;;;;;;;31.77;29.53;;;;;;;13.37;95.70;102059.78;5052928;28;20514;-43
2022/10/07 08:15:13;;;;;;;55.70;52.27;;;;;;;13.48;96.19;102057.47;5053672;28;20431;-44
2022/10/07 08:17:42;;;;;;;32.17;29.57;;;;;;;13.58;96.19;102043.81;5053173;28;20470;-46
2022/10/07 08:20:13;;;;;;;31.80;29.60;;;;;;;13.65;95.39;102050.91;5060142;28;20426;-43
2022/10/07 08:22:44;;;;;;;37.00;33.20;;;;;;;13.67;94.65;102045.38;5064318;28;20926;-42
2022/10/07 08:25:12;;;;;;;310.93;255.23;;;;;;;13.74;94.55;102054.34;5073208;28;20426;-46
2022/10/07 08:27:39;;;;;;;183.17;135.03;;;;;;;13.78;94.92;102047.59;5073217;28;20504;-46
2022/10/07 08:30:08;;;;;;;31.57;29.63;;;;;;;13.95;95.22;102042.88;5073480;28;20430;-45
2022/10/07 08:32:36;;;;;;;31.23;28.90;;;;;;;13.92;93.93;102035.22;5072745;28;20430;-44
2022/10/07 08:35:04;;;;;;;30.47;28.53;;;;;;;13.92;95.23;102027.16;5073292;28;20834;-45
2022/10/07 08:37:33;;;;;;;32.07;29.50;;;;;;;13.90;95.09;102034.53;5073070;28;20527;-44
2022/10/07 08:40:01;;;;;;;31.00;29.07;;;;;;;13.96;95.96;102031.13;5072974;28;20456;-44
2022/10/07 08:42:34;;;;;;;31.67;29.27;;;;;;;14.00;96.00;102025.22;5072448;28;20491;-46
2022/10/07 08:45:02;;;;;;;32.27;29.57;;;;;;;14.21;95.84;102016.38;5073042;28;20460;-44
2022/10/07 08:47:35;;;;;;;32.30;29.60;;;;;;;14.29;95.18;102016.25;5072880;28;20455;-45
2022/10/07 08:50:08;;;;;;;31.77;29.83;;;;;;;14.27;94.19;102019.13;5073070;28;20842;-44
2022/10/07 08:52:49;;;;;;;30.73;28.70;;;;;;;14.35;94.55;102012.84;5072080;28;20429;-48
2022/10/07 08:55:27;;;;;;;30.47;28.47;;;;;;;14.51;95.02;102004.53;5072850;28;20426;-44
2022/10/07 08:58:13;;;;;;;31.40;29.40;;;;;;;14.69;95.03;102004.09;5072245;28;20478;-45
2022/10/07 09:00:46;;;;;;;31.93;29.03;;;;;;;14.79;93.96;102000.03;5072467;28;20422;-44
2022/10/07 09:03:23;;;;;;;29.73;27.57;;;;;;;14.90;92.93;101996.81;5072105;28;20462;-44
2022/10/07 09:05:54;;;;;;;31.70;29.07;;;;;;;15.08;92.70;101984.78;5072496;28;20955;-44
2022/10/07 09:08:29;;;;;;;30.30;28.47;;;;;;;15.17;92.88;101997.03;5072401;28;20442;-44
2022/10/07 09:11:14;;;;;;;30.57;27.97;;;;;;;15.24;91.76;101982.59;5072367;28;20427;-48
2022/10/07 09:13:46;;;;;;;28.20;26.30;;;;;;;15.25;92.06;101986.97;5071992;28;20454;-45
2022/10/07 09:16:18;;;;;;;28.20;26.20;;;;;;;15.41;91.80;101983.94;5072432;28;20426;-45
2022/10/07 09:18:49;;;;;;;27.67;25.93;;;;;;;15.50;90.68;101984.66;5072388;28;20874;-44
2022/10/07 09:21:22;;;;;;;30.43;27.83;;;;;;;15.59;90.11;101982.66;5060788;28;20427;-44
2022/10/07 09:23:55;;;;;;;27.90;25.90;;;;;;;15.55;90.74;101976.00;5031688;28;20490;-44
2022/10/07 09:26:26;;;;;;;27.87;25.73;;;;;;;15.66;91.38;101980.78;5032172;28;20452;-44
2022/10/07 09:28:54;;;;;;;32.73;29.40;;;;;;;15.73;90.72;101969.06;5032065;28;21011;-44
2022/10/07 09:31:24;;;;;;;29.13;26.70;;;;;;;15.82;91.66;101980.47;5031901;28;20436;-46
2022/10/07 09:33:53;;;;;;;28.40;26.30;;;;;;;15.93;91.20;101969.13;5031724;28;20887;-44
2022/10/07 09:36:21;;;;;;;26.70;24.73;;;;;;;15.86;91.23;101960.22;5032247;28;21239;-44
2022/10/07 09:38:52;;;;;;;27.10;25.23;;;;;;;15.96;91.43;101960.63;5032032;28;20479;-44
2022/10/07 09:41:29;;;;;;;26.47;24.40;;;;;;;15.99;91.18;101957.56;5031899;28;20486;-47
2022/10/07 09:44:04;;;;;;;27.27;24.57;;;;;;;16.01;91.78;101952.78;5031575;28;20904;-45
2022/10/07 09:46:42;;;;;;;26.80;24.40;;;;;;;16.19;92.75;101936.88;5031862;28;20497;-46
2022/10/07 09:49:30;;;;;;;25.80;23.33;;;;;;;16.04;92.25;101950.53;5032023;28;20938;-44
2022/10/07 09:52:01;;;;;;;26.17;23.70;;;;;;;15.92;91.88;101944.06;5031582;28;20929;-47
2022/10/07 09:54:31;;;;;;;24.30;22.03;;;;;;;16.04;92.51;101942.44;5031509;28;20472;-47
2022/10/07 09:57:02;;;;;;;23.50;21.30;;;;;;;15.98;92.28;101937.88;5031739;28;21291;-47
2022/10/07 09:59:31;;;;;;;24.40;21.83;;;;;;;15.97;91.42;101935.41;5031732;28;21183;-44
2022/10/07 10:02:01;;;;;;;22.67;20.70;;;;;;;16.07;91.57;101935.03;5031562;28;21012;-46
2022/10/07 10:04:32;;;;;;;21.77;20.17;;;;;;;16.17;91.48;101930.06;5031264;28;20534;-46
2022/10/07 10:07:03;;;;;;;23.07;20.87;;;;;;;16.10;91.03;101934.63;5031426;28;20514;-44
2022/10/07 10:09:34;;;;;;;23.57;21.20;;;;;;;16.13;91.03;101936.91;5031555;28;20487;-45
2022/10/07 10:12:15;;;;;;;22.40;20.37;;;;;;;16.07;91.56;101932.34;5031598;28;20428;-46
2022/10/07 10:14:47;;;;;;;21.40;20.20;;;;;;;16.45;92.52;101934.25;5030987;28;20872;-44
2022/10/07 10:17:28;;;;;;;21.77;19.77;;;;;;;16.40;89.21;101925.94;5031486;28;21023;-45
2022/10/07 10:20:16;;;;;;;21.83;19.83;;;;;;;16.64;88.78;101929.91;5044237;28;21090;-44
2022/10/07 10:22:44;;;;;;;20.50;18.67;;;;;;;16.77;87.49;101924.53;5062625;28;20462;-45
2022/10/07 10:28:06;;;;;;;19.50;17.50;;;;;;;17.12;85.26;101917.00;5071689;28;20454;-44
2022/10/07 10:30:42;;;;;;;18.00;16.43;;;;;;;17.11;84.30;101916.16;5071330;28;20430;-44
2022/10/07 10:33:19;;;;;;;18.13;16.43;;;;;;;17.60;85.44;101912.94;5071201;28;20458;-44
2022/10/07 10:35:55;;;;;;;17.53;16.03;;;;;;;17.67;81.74;101908.34;5071516;28;20468;-45
2022/10/07 10:38:34;;;;;;;16.43;14.47;;;;;;;17.64;80.83;101914.19;5071278;28;20470;-43
2022/10/07 10:41:13;;;;;;;20.13;14.70;;;;;;;17.56;81.76;101914.41;5071276;28;20767;-45
2022/10/07 10:43:55;;;;;;;15.83;14.37;;;;;;;17.61;81.82;101906.50;5070626;28;20458;-48
2022/10/07 10:46:33;;;;;;;19.97;13.40;;;;;;;17.46;81.88;101897.84;5070932;28;21191;-46
2022/10/07 10:49:18;;;;;;;15.57;12.70;;;;;;;17.72;82.11;101896.06;5070964;28;20944;-45
2022/10/07 10:52:05;;;;;;;14.80;13.30;;;;;;;17.79;81.16;101886.91;5071192;28;20476;-44
2022/10/07 10:54:47;;;;;;;18.57;14.00;;;;;;;17.86;80.71;101879.59;5070792;28;20484;-48
2022/10/07 10:57:22;;;;;;;16.73;12.43;;;;;;;17.74;80.98;101886.72;5071024;28;20453;-44
2022/10/07 11:00:03;;;;;;;13.60;12.20;;;;;;;17.76;79.98;101881.94;5071002;28;20523;-44
2022/10/07 11:03:00;;;;;;;14.70;12.03;;;;;;;17.93;79.41;101877.69;5070552;28;20430;-44
2022/10/07 11:05:32;;;;;;;13.67;11.40;;;;;;;17.73;79.36;101882.38;5071130;28;20521;-44
2022/10/07 11:08:04;;;;;;;18.23;11.80;;;;;;;17.66;81.06;101870.78;5070786;28;20869;-50
2022/10/07 11:10:35;;;;;;;14.40;10.73;;;;;;;17.72;80.80;101863.69;5070918;28;20942;-45
2022/10/07 11:13:27;;;;;;;13.40;10.70;;;;;;;17.72;80.66;101855.59;5070471;28;20469;-44
2022/10/07 11:16:01;;;;;;;15.37;10.13;;;;;;;17.61;81.01;101846.34;5070911;28;20426;-45
2022/10/07 11:18:37;;;;;;;13.73;10.57;;;;;;;17.87;80.72;101856.13;5070742;28;20434;-44
2022/10/07 11:21:10;;;;;;;16.40;11.40;;;;;;;18.08;80.14;101834.19;5064497;28;20433;-45
2022/10/07 11:23:49;;;;;;;13.13;10.73;;;;;;;17.88;80.11;101839.75;5073183;28;20508;-45
2022/10/07 11:26:22;;;;;;;12.03;9.57;;;;;;;18.03;80.21;101842.94;5067848;28;20494;-45
2022/10/07 11:28:53;;;;;;;11.17;9.43;;;;;;;17.98;80.70;101836.56;5058891;28;20479;-48
2022/10/07 11:31:31;;;;;;;18.17;9.80;;;;;;;18.14;82.43;101827.91;5074341;28;20525;-44
2022/10/07 11:34:16;;;;;;;16.53;9.80;;;;;;;18.25;79.50;101825.31;5052287;28;20463;-47